createdAt,value
2019-03-05T00:04:56.057Z,21.78
2019-03-05T00:10:00.324Z,21.79
2019-03-05T00:15:04.848Z,21.79
2019-03-05T00:20:11.029Z,21.78
2019-03-05T00:25:17.489Z,21.78
2019-03-05T00:30:46.575Z,21.78
2019-03-05T00:36:40.995Z,21.79
2019-03-05T00:41:58.593Z,21.76
2019-03-05T00:47:18.906Z,21.70
2019-03-05T00:52:33.462Z,21.61
2019-03-05T00:57:49.986Z,21.53
2019-03-05T01:03:13.370Z,21.47
2019-03-05T01:08:19.592Z,21.40
2019-03-05T01:13:23.448Z,21.35
2019-03-05T01:18:27.670Z,21.32
2019-03-05T01:23:31.732Z,21.32
2019-03-05T01:28:35.838Z,21.24
2019-03-05T01:33:49.640Z,21.24
2019-03-05T01:39:02.587Z,21.17
2019-03-05T01:44:06.740Z,21.09
2019-03-05T01:49:10.857Z,21.08
2019-03-05T01:54:14.985Z,21.06
2019-03-05T01:59:19.039Z,21.06
2019-03-05T02:04:23.245Z,21.06
2019-03-05T02:09:27.565Z,20.99
2019-03-05T02:14:31.691Z,20.94
2019-03-05T02:19:37.927Z,20.94
2019-03-05T02:25:19.340Z,20.86
2019-03-05T02:30:37.491Z,20.86
2019-03-05T02:36:13.094Z,20.79
2019-03-05T02:41:40.974Z,20.78
2019-03-05T02:47:00.364Z,20.74
2019-03-05T02:52:45.041Z,20.74
2019-03-05T02:57:47.594Z,20.68
2019-03-05T03:02:58.776Z,20.68
2019-03-05T03:08:02.994Z,20.68
2019-03-05T03:13:07.186Z,20.66
2019-03-05T03:18:11.355Z,20.66
2019-03-05T03:23:15.460Z,20.66
2019-03-05T03:28:19.494Z,20.64
2019-03-05T03:33:23.533Z,20.64
2019-03-05T03:38:27.535Z,20.64
2019-03-05T03:43:31.577Z,20.62
2019-03-05T03:48:35.606Z,20.61
2019-03-05T03:53:39.672Z,20.60
2019-03-05T03:58:43.761Z,20.60
2019-03-05T04:03:47.963Z,20.59
2019-03-05T04:08:52.152Z,20.58
2019-03-05T04:13:59.528Z,20.54
2019-03-05T04:19:03.562Z,20.53
2019-03-05T04:24:07.588Z,20.50
2019-03-05T04:29:11.721Z,20.48
2019-03-05T04:34:15.863Z,20.48
2019-03-05T04:39:19.958Z,20.48
2019-03-05T04:44:32.324Z,20.47
2019-03-05T04:49:44.018Z,20.43
2019-03-05T04:54:48.060Z,20.41
2019-03-05T04:59:52.089Z,20.39
2019-03-05T05:04:56.218Z,20.37
2019-03-05T05:10:00.337Z,20.37
2019-03-05T05:15:05.618Z,20.36
2019-03-05T05:20:09.829Z,20.35
2019-03-05T05:25:13.870Z,20.34
2019-03-05T05:30:38.024Z,20.30
2019-03-05T05:35:42.248Z,20.30
2019-03-05T05:40:46.726Z,20.28
2019-03-05T05:45:51.980Z,20.25
2019-03-05T05:50:56.106Z,20.22
2019-03-05T05:56:00.201Z,20.21
2019-03-05T06:01:07.878Z,20.17
2019-03-05T06:06:11.917Z,20.17
2019-03-05T06:11:16.048Z,20.16
2019-03-05T06:16:20.130Z,20.16
2019-03-05T06:21:24.149Z,20.16
2019-03-05T06:26:28.171Z,20.12
2019-03-05T06:31:32.261Z,20.08
2019-03-05T06:36:55.918Z,20.08
2019-03-05T06:41:59.975Z,20.11
2019-03-05T06:47:04.112Z,20.07
2019-03-05T06:52:08.205Z,20.06
2019-03-05T06:57:12.268Z,20.06
2019-03-05T07:02:16.386Z,20.02
2019-03-05T07:07:20.435Z,20.03
2019-03-05T07:12:56.722Z,20.02
2019-03-05T07:18:06.026Z,20.02
2019-03-05T07:23:30.538Z,19.99
2019-03-05T07:28:34.686Z,20.01
2019-03-05T07:33:38.795Z,19.99
2019-03-05T07:38:42.895Z,19.99
2019-03-05T07:43:46.960Z,19.94
2019-03-05T07:48:51.000Z,19.95
2019-03-05T07:53:55.015Z,19.95
2019-03-05T07:58:59.036Z,19.58
2019-03-05T08:04:03.491Z,19.45
2019-03-05T08:09:35.572Z,19.67
2019-03-05T08:15:03.394Z,19.79
2019-03-05T08:20:09.626Z,19.97
2019-03-05T08:25:14.182Z,19.97
2019-03-05T08:30:18.613Z,20.30
2019-03-05T08:35:22.845Z,20.48
2019-03-05T08:40:27.298Z,20.56
2019-03-05T08:45:31.594Z,20.57
2019-03-05T08:50:35.957Z,20.57
2019-03-05T08:55:40.307Z,20.55
2019-03-05T09:00:44.549Z,20.50
2019-03-05T09:05:48.817Z,20.41
2019-03-05T09:10:54.209Z,20.43
2019-03-05T09:15:58.523Z,20.42
2019-03-05T09:21:02.833Z,20.42
2019-03-05T09:26:07.213Z,20.36
2019-03-05T09:31:11.506Z,20.24
2019-03-05T09:36:15.735Z,20.20
2019-03-05T09:41:20.057Z,20.20
2019-03-05T09:46:24.244Z,20.14
2019-03-05T09:51:28.489Z,20.13
2019-03-05T09:56:32.683Z,20.09
2019-03-05T10:01:37.046Z,20.18
2019-03-05T10:06:41.333Z,20.21
2019-03-05T10:11:45.580Z,20.21
2019-03-05T10:16:49.790Z,20.25
2019-03-05T10:21:54.073Z,20.26
2019-03-05T10:26:58.410Z,20.26
2019-03-05T10:32:02.681Z,20.23
2019-03-05T10:37:12.831Z,20.22
2019-03-05T10:42:12.937Z,20.18
2019-03-05T10:47:17.098Z,20.17
2019-03-05T10:52:21.237Z,20.18
2019-03-05T10:57:25.524Z,20.15
2019-03-05T11:02:29.767Z,20.11
2019-03-05T11:07:33.988Z,20.08
2019-03-05T11:12:39.296Z,20.08
2019-03-05T11:17:43.528Z,20.07
2019-03-05T11:22:48.237Z,20.09
2019-03-05T11:27:52.595Z,20.11
2019-03-05T11:32:56.916Z,20.13
2019-03-05T11:38:01.151Z,20.13
2019-03-05T11:43:13.360Z,20.12
2019-03-05T11:48:17.782Z,20.12
2019-03-05T11:53:21.950Z,20.14
2019-03-05T11:58:26.270Z,20.16
2019-03-05T12:03:30.637Z,20.17
2019-03-05T12:08:34.874Z,20.17
2019-03-05T12:13:39.362Z,20.15
2019-03-05T12:18:43.513Z,20.16
2019-03-05T12:23:48.381Z,20.16
2019-03-05T12:28:52.804Z,20.16
2019-03-05T12:33:57.004Z,20.14
2019-03-05T12:39:01.259Z,20.11
2019-03-05T12:44:05.888Z,18.34
2019-03-05T12:49:10.512Z,17.42
2019-03-05T12:54:15.067Z,17.32
2019-03-05T12:59:19.662Z,17.32
2019-03-05T13:04:23.769Z,17.28
2019-03-05T13:09:27.913Z,18.79
2019-03-05T13:14:32.327Z,19.91
2019-03-05T13:19:38.702Z,20.45
2019-03-05T13:24:42.545Z,20.69
2019-03-05T13:29:46.810Z,20.75
2019-03-05T13:34:51.321Z,20.69
2019-03-05T13:39:58.200Z,20.70
2019-03-05T13:45:05.322Z,20.68
2019-03-05T13:50:30.152Z,20.70
2019-03-05T13:56:30.683Z,20.75
2019-03-05T14:01:35.020Z,20.57
2019-03-05T14:06:49.640Z,20.57
2019-03-05T14:11:54.312Z,20.70
2019-03-05T14:17:31.332Z,20.60
2019-03-05T14:22:35.782Z,20.57
2019-03-05T14:27:45.299Z,20.56
2019-03-05T14:32:49.694Z,20.50
2019-03-05T14:37:53.849Z,20.46
2019-03-05T14:42:58.448Z,20.42
2019-03-05T14:48:04.349Z,20.33
2019-03-05T14:53:09.420Z,20.25
2019-03-05T14:58:23.041Z,20.25
2019-03-05T15:03:27.383Z,20.08
2019-03-05T15:08:31.856Z,20.14
2019-03-05T15:24:40.481Z,20.46
2019-03-05T15:29:45.504Z,20.34
2019-03-05T16:23:33.144Z,20.78
2019-03-05T16:28:39.150Z,20.79
2019-03-05T16:33:50.673Z,20.79
2019-03-05T16:39:03.248Z,20.82
2019-03-05T16:44:16.945Z,20.84
2019-03-05T16:49:40.049Z,20.84
2019-03-05T16:55:03.298Z,20.88
2019-03-05T17:00:24.308Z,20.87
2019-03-05T17:05:38.119Z,20.87
2019-03-05T17:10:51.900Z,21.42
2019-03-05T17:15:56.210Z,21.94
2019-03-05T17:21:00.780Z,22.29
2019-03-05T17:26:05.675Z,22.29
2019-03-05T17:31:10.128Z,22.60
2019-03-05T17:36:16.474Z,22.46
2019-03-05T17:41:22.320Z,22.46
2019-03-05T17:46:31.883Z,22.49
2019-03-05T17:51:38.563Z,22.44
2019-03-05T17:56:47.689Z,22.52
2019-03-05T18:01:52.396Z,22.65
2019-03-05T18:06:56.885Z,22.65
2019-03-05T18:12:01.164Z,22.42
2019-03-05T18:17:05.637Z,22.37
2019-03-05T18:22:10.025Z,22.61
2019-03-05T18:27:14.403Z,22.59
2019-03-05T18:32:18.793Z,22.76
2019-03-05T18:37:23.025Z,22.60
2019-03-05T19:04:44.347Z,22.53
2019-03-05T19:09:48.530Z,22.68
2019-03-05T19:57:32.185Z,22.77
2019-03-05T20:08:05.822Z,22.77
2019-03-05T20:13:10.467Z,22.69
2019-03-05T20:18:14.852Z,22.55
2019-03-05T20:23:24.718Z,22.45
2019-03-05T20:28:29.154Z,22.37
2019-03-05T20:33:33.677Z,22.37
2019-03-05T20:38:39.934Z,22.10
2019-03-05T20:43:44.476Z,22.11
2019-03-05T20:48:48.995Z,22.11
2019-03-05T20:53:53.392Z,21.98
2019-03-05T20:58:58.150Z,21.93
2019-03-05T21:04:13.070Z,21.90
2019-03-05T21:09:24.596Z,21.90
2019-03-05T21:14:28.817Z,21.88
2019-03-05T21:19:33.276Z,21.88
2019-03-05T21:24:37.506Z,21.90
2019-03-05T21:29:41.693Z,21.80
2019-03-05T21:34:47.037Z,21.87
2019-03-05T21:39:51.525Z,21.87
2019-03-05T21:44:55.639Z,21.82
2019-03-05T21:49:59.802Z,21.80
2019-03-05T21:55:04.237Z,21.78
2019-03-05T22:00:12.405Z,21.78
2019-03-05T22:05:16.819Z,21.76
2019-03-05T22:10:21.207Z,21.76
2019-03-05T22:15:25.653Z,21.63
2019-03-05T22:20:29.739Z,21.63
2019-03-05T22:25:34.217Z,21.71
2019-03-05T22:30:38.510Z,21.71
2019-03-05T22:35:43.090Z,21.68
2019-03-05T22:40:47.231Z,21.64
2019-03-05T22:45:51.842Z,21.64
2019-03-05T22:50:56.044Z,21.64
2019-03-05T22:56:00.555Z,21.64
2019-03-05T23:01:12.016Z,21.64
2019-03-05T23:06:16.659Z,21.62
2019-03-05T23:11:21.055Z,21.61
2019-03-05T23:16:25.311Z,21.61
2019-03-05T23:21:29.673Z,21.60
2019-03-05T23:26:34.036Z,21.57
2019-03-05T23:31:38.530Z,21.55
2019-03-05T23:36:42.631Z,21.50
2019-03-05T23:41:46.748Z,21.38
2019-03-05T23:46:50.797Z,21.45
2019-03-05T23:51:54.846Z,21.34
2019-03-05T23:56:59.067Z,21.34
